LZTT/TAT METAR and TAF weather

Enter ICAO airport designator
Station Type Date Time Source
LZTT METAR 2021/07/26 17:00 UTC NOAA

LZTT 261700Z 26004KT 9999 FEW036 22/19 Q1016


Station Type Date Time Source
LZTT Decoded METAR 2021/07/26 17:00 UTC NOAA

Poprad / Tatry, Slovakia (LZTT) 49-04N 020-15E 695M
Jul 26, 2021 - 01:00 PM EDT / 2021.07.26 1700 UTC
Wind: from the W (260 degrees) at 5 MPH (4 KT):0
Visibility: greater than 7 mile(s):0
Sky conditions: mostly clear
Temperature: 71 F (22 C)
Dew Point: 66 F (19 C)
Relative Humidity: 83%
Pressure (altimeter): 30.00 in. Hg (1016 hPa)
ob: LZTT 261700Z 26004KT 9999 FEW036 22/19 Q1016
cycle: 17

Station Type Date Time Source
LZTT TAF 2021/07/26 18:48 UTC NOAA

TAF LZTT 261700Z 2618/2718 25008KT 9999 FEW040 SCT060
TEMPO 2618/2701 SHRA FEW015 SCT027CB BKN040 PROB40
TEMPO 2618/2623 24015G25KT 3000 TSRA PROB40
TEMPO 2703/2707 2000 BCFG BKN004
TEMPO 2712/2718 SHRA FEW040CB BKN050 PROB40
TEMPO 2714/2718 23015G25KT TSRA

Example: see airport list